Time;durP1;ratioP1;P1;durP2;ratioP2;P2;SDS_P1;SDS_P2;PMS_P1;PMS_P2;Temp;Humidity;BMP_temperature;BMP_pressure;BME280_temperature;BME280_humidity;BME280_pressure;Samples;Min_cycle;Max_cycle;Signal;HPM_P1;HPM_P2
2021/10/30 00:00:11;;;;;;;3.97;3.78;;;15.20;77.90;;;;;;4970991;28;20027;-77
2021/10/30 00:02:37;;;;;;;3.90;3.70;;;15.20;77.90;;;;;;4973061;28;20027;-77
2021/10/30 00:05:04;;;;;;;3.97;3.78;;;15.20;77.90;;;;;;4968552;28;20039;-78
2021/10/30 00:07:31;;;;;;;3.80;3.60;;;15.20;77.90;;;;;;4971478;28;20031;-78
2021/10/30 00:09:57;;;;;;;4.00;3.80;;;15.20;78.00;;;;;;4969072;28;20408;-77
2021/10/30 00:12:23;;;;;;;3.88;3.67;;;15.20;77.90;;;;;;4971664;28;20026;-78
2021/10/30 00:14:49;;;;;;;4.05;3.85;;;15.20;78.00;;;;;;4982186;28;20069;-77
2021/10/30 00:17:15;;;;;;;3.83;3.63;;;15.20;78.00;;;;;;4972433;28;20502;-78
2021/10/30 00:19:41;;;;;;;3.85;3.65;;;15.20;78.00;;;;;;4970770;28;20391;-77
2021/10/30 00:22:08;;;;;;;4.13;3.92;;;15.20;78.10;;;;;;4972384;28;20031;-78
2021/10/30 00:24:35;;;;;;;4.30;4.10;;;15.10;78.10;;;;;;4968966;28;20376;-77
2021/10/30 00:27:04;;;;;;;4.45;4.20;;;15.10;78.10;;;;;;4968898;28;20412;-77
2021/10/30 00:29:30;;;;;;;3.92;3.72;;;15.10;78.20;;;;;;4974236;28;20042;-77
2021/10/30 00:31:57;;;;;;;3.92;3.72;;;15.10;78.20;;;;;;4969168;28;20038;-77
2021/10/30 00:34:23;;;;;;;3.90;3.70;;;15.10;78.20;;;;;;4971165;28;20047;-78
2021/10/30 00:36:52;;;;;;;3.83;3.63;;;15.10;78.20;;;;;;4977175;28;20502;-77
2021/10/30 00:39:18;;;;;;;4.03;3.83;;;15.10;78.20;;;;;;4971133;28;20047;-78
2021/10/30 00:41:52;;;;;;;4.28;4.07;;;15.10;78.20;;;;;;4969485;28;20046;-77
2021/10/30 00:44:19;;;;;;;4.22;4.03;;;15.10;78.30;;;;;;4973654;28;20027;-78
2021/10/30 00:46:46;;;;;;;4.40;4.20;;;15.10;78.30;;;;;;4970153;28;20038;-77
2021/10/30 00:49:13;;;;;;;4.10;3.90;;;15.10;78.30;;;;;;4969209;28;20022;-78
2021/10/30 00:51:40;;;;;;;4.15;3.95;;;15.10;78.30;;;;;;4973210;28;20046;-78
2021/10/30 00:54:07;;;;;;;3.97;3.78;;;15.10;78.30;;;;;;4953232;28;20042;-78
2021/10/30 00:56:34;;;;;;;3.90;3.70;;;15.00;78.30;;;;;;4984836;28;20601;-78
2021/10/30 00:59:09;;;;;;;4.22;4.03;;;15.10;78.30;;;;;;4970824;28;20030;-78
2021/10/30 01:01:41;;;;;;;3.92;3.72;;;15.10;78.30;;;;;;4969044;28;20127;-78
2021/10/30 01:04:07;;;;;;;3.58;3.38;;;15.10;78.30;;;;;;4968152;28;20395;-78
2021/10/30 01:06:34;;;;;;;3.72;3.53;;;15.10;78.30;;;;;;4970296;28;20039;-78
2021/10/30 01:09:01;;;;;;;3.83;3.63;;;15.10;78.30;;;;;;4971831;28;20027;-78
2021/10/30 01:11:27;;;;;;;3.60;3.40;;;15.10;78.30;;;;;;4972144;28;20484;-77
2021/10/30 01:13:53;;;;;;;4.13;3.92;;;15.10;78.30;;;;;;4968062;28;20049;-78
2021/10/30 01:16:19;;;;;;;3.83;3.63;;;15.10;78.30;;;;;;4973082;28;20055;-77
2021/10/30 01:18:46;;;;;;;3.80;3.60;;;15.10;78.30;;;;;;4969023;28;20023;-78
2021/10/30 01:21:12;;;;;;;3.90;3.70;;;15.10;78.30;;;;;;4970510;28;20046;-78
2021/10/30 01:23:38;;;;;;;4.00;3.80;;;15.20;78.40;;;;;;4970434;28;20503;-77
2021/10/30 01:26:05;;;;;;;3.80;3.60;;;15.20;78.30;;;;;;4971815;28;20058;-77
2021/10/30 01:28:32;;;;;;;4.00;3.80;;;15.20;78.40;;;;;;4967694;28;20054;-78
2021/10/30 01:30:58;;;;;;;3.80;3.60;;;15.20;78.40;;;;;;4969560;28;20034;-77
2021/10/30 01:33:24;;;;;;;4.00;3.80;;;15.20;78.40;;;;;;4968348;28;20041;-77
2021/10/30 01:35:50;;;;;;;3.88;3.67;;;15.20;78.40;;;;;;4970869;28;20062;-77
2021/10/30 01:38:17;;;;;;;3.95;3.75;;;15.20;78.40;;;;;;4972777;28;20431;-77
2021/10/30 01:40:48;;;;;;;4.00;3.80;;;15.20;78.40;;;;;;4968673;28;20035;-78
2021/10/30 01:43:14;;;;;;;4.07;3.88;;;15.20;78.40;;;;;;4970360;28;20030;-78
2021/10/30 01:45:41;;;;;;;4.53;3.97;;;15.10;78.50;;;;;;4972347;28;20030;-78
2021/10/30 01:48:07;;;;;;;3.67;3.47;;;15.10;78.50;;;;;;4967861;28;20018;-78
2021/10/30 01:50:33;;;;;;;3.97;3.78;;;15.10;78.60;;;;;;4970522;28;20042;-78
2021/10/30 01:53:00;;;;;;;3.90;3.70;;;15.10;78.70;;;;;;4971649;28;20031;-78
2021/10/30 01:55:35;;;;;;;4.20;4.00;;;15.00;78.70;;;;;;4969887;28;20130;-78
2021/10/30 01:58:01;;;;;;;4.13;3.72;;;15.00;78.80;;;;;;4970527;28;20031;-78
2021/10/30 02:00:27;;;;;;;4.05;3.85;;;15.00;78.80;;;;;;4967202;28;20035;-78
2021/10/30 02:02:53;;;;;;;4.63;4.32;;;15.00;78.80;;;;;;4965012;28;20027;-78
2021/10/30 02:05:19;;;;;;;3.90;3.70;;;15.00;78.80;;;;;;4963745;28;20047;-78
2021/10/30 02:07:46;;;;;;;4.05;3.85;;;15.00;78.80;;;;;;4969302;28;20038;-78
2021/10/30 02:10:12;;;;;;;3.92;3.72;;;15.00;78.80;;;;;;4967356;28;20035;-78
2021/10/30 02:12:39;;;;;;;3.83;3.63;;;14.90;78.90;;;;;;4978386;28;20035;-78
2021/10/30 02:15:05;;;;;;;4.18;3.97;;;14.90;78.90;;;;;;4966734;28;20492;-77
2021/10/30 02:17:32;;;;;;;3.85;3.65;;;14.90;78.90;;;;;;4968698;28;20030;-78
2021/10/30 02:19:58;;;;;;;3.97;3.78;;;14.90;78.90;;;;;;4967917;28;20043;-78
2021/10/30 02:22:24;;;;;;;4.20;4.00;;;14.90;79.00;;;;;;4968389;28;20038;-78
2021/10/30 02:24:51;;;;;;;4.20;4.00;;;14.90;79.00;;;;;;4968206;28;20038;-77
2021/10/30 02:27:17;;;;;;;4.05;3.85;;;14.90;79.00;;;;;;4966580;28;20046;-77
2021/10/30 02:29:43;;;;;;;3.97;3.78;;;14.90;79.10;;;;;;4970362;28;20023;-78
2021/10/30 02:32:09;;;;;;;4.88;4.47;;;14.90;79.10;;;;;;4969558;28;20047;-78
2021/10/30 02:34:36;;;;;;;3.63;3.45;;;14.90;79.10;;;;;;4967808;28;20058;-78
2021/10/30 02:37:02;;;;;;;3.90;3.70;;;14.90;79.20;;;;;;4970545;28;20054;-78
2021/10/30 02:39:28;;;;;;;3.80;3.60;;;14.80;79.20;;;;;;4970047;28;20042;-78
2021/10/30 02:41:54;;;;;;;3.97;3.78;;;14.80;79.30;;;;;;4966562;28;20051;-77
2021/10/30 02:44:20;;;;;;;3.58;3.40;;;14.80;79.40;;;;;;4972427;28;20027;-78
2021/10/30 02:46:46;;;;;;;4.07;3.88;;;14.80;79.50;;;;;;4968469;28;20049;-78
2021/10/30 02:49:12;;;;;;;4.22;4.03;;;14.80;79.40;;;;;;4968722;28;20043;-78
2021/10/30 02:51:38;;;;;;;4.55;4.25;;;14.80;79.40;;;;;;4969547;28;20034;-78
2021/10/30 02:54:04;;;;;;;3.97;3.78;;;14.80;79.40;;;;;;4970169;28;20035;-78
2021/10/30 02:56:31;;;;;;;4.13;3.92;;;14.80;79.40;;;;;;4969852;28;20030;-78
2021/10/30 02:58:57;;;;;;;3.83;3.63;;;14.80;79.40;;;;;;4971301;28;20041;-78
2021/10/30 03:01:23;;;;;;;3.97;3.78;;;14.80;79.30;;;;;;4966684;28;20066;-78
2021/10/30 03:03:49;;;;;;;4.10;3.90;;;14.90;79.30;;;;;;4965793;28;20023;-78
2021/10/30 03:06:16;;;;;;;4.00;3.80;;;14.90;80.00;;;;;;4964980;28;20030;-78
2021/10/30 03:08:42;;;;;;;4.43;4.22;;;14.90;79.30;;;;;;4969247;28;20047;-78
2021/10/30 03:11:08;;;;;;;4.35;4.13;;;14.90;79.20;;;;;;4968355;28;20043;-78
2021/10/30 03:13:34;;;;;;;4.00;3.80;;;14.90;79.20;;;;;;4968772;28;20041;-78
2021/10/30 03:16:00;;;;;;;4.32;4.13;;;15.00;79.20;;;;;;4967992;28;20047;-78
2021/10/30 03:18:26;;;;;;;4.10;3.90;;;15.00;79.20;;;;;;4969683;28;20035;-78
2021/10/30 03:20:52;;;;;;;4.82;4.35;;;15.00;79.20;;;;;;4970309;28;20039;-78
2021/10/30 03:23:18;;;;;;;4.28;4.07;;;15.00;79.20;;;;;;4971350;28;20034;-81
2021/10/30 03:25:45;;;;;;;4.15;3.95;;;15.00;79.20;;;;;;4971334;28;20041;-82
2021/10/30 03:28:11;;;;;;;4.60;4.25;;;15.00;79.20;;;;;;4972214;28;20400;-80
2021/10/30 03:30:37;;;;;;;4.20;4.00;;;15.00;79.20;;;;;;4972118;28;20060;-82
2021/10/30 03:33:03;;;;;;;3.97;3.78;;;15.00;79.20;;;;;;4973050;28;20030;-84
2021/10/30 03:35:29;;;;;;;4.70;4.40;;;15.00;79.10;;;;;;4973118;28;20051;-82
2021/10/30 03:37:55;;;;;;;4.80;4.60;;;15.00;79.90;;;;;;4973486;28;20046;-83
2021/10/30 03:40:21;;;;;;;4.38;4.18;;;15.00;79.20;;;;;;4972249;28;20058;-82
2021/10/30 03:42:47;;;;;;;4.40;4.20;;;15.00;79.20;;;;;;4972393;28;20043;-82
2021/10/30 03:45:15;;;;;;;4.32;4.13;;;15.00;79.20;;;;;;4973834;28;20050;-82
2021/10/30 03:47:41;;;;;;;4.38;4.18;;;15.00;79.20;;;;;;4971256;28;20450;-81
2021/10/30 03:50:07;;;;;;;4.38;4.18;;;15.00;79.20;;;;;;4973716;28;20043;-81
2021/10/30 03:52:33;;;;;;;4.20;4.00;;;15.00;79.30;;;;;;4972773;28;20038;-81
2021/10/30 03:54:59;;;;;;;4.18;3.97;;;15.00;79.30;;;;;;4972606;28;20041;-82
2021/10/30 03:57:26;;;;;;;5.03;4.47;;;15.00;79.30;;;;;;4955322;28;20046;-81
2021/10/30 03:59:52;;;;;;;4.63;4.32;;;15.00;79.30;;;;;;4973919;28;22716;-81
2021/10/30 04:02:19;;;;;;;3.92;3.72;;;15.00;79.30;;;;;;4972188;28;20035;-83
2021/10/30 04:04:45;;;;;;;6.05;4.15;;;15.00;79.30;;;;;;4973546;28;20043;-81
2021/10/30 04:07:11;;;;;;;3.83;3.63;;;15.00;79.40;;;;;;4973132;28;20027;-81
2021/10/30 04:09:37;;;;;;;4.65;4.28;;;15.00;79.40;;;;;;4972047;28;20042;-81
2021/10/30 04:12:04;;;;;;;4.35;4.10;;;15.10;79.40;;;;;;4971335;28;20042;-81
2021/10/30 04:14:30;;;;;;;4.05;3.75;;;15.10;79.40;;;;;;4974171;28;20435;-81
2021/10/30 04:16:56;;;;;;;4.05;3.85;;;15.00;79.40;;;;;;4970674;28;20042;-82
2021/10/30 04:19:22;;;;;;;3.92;3.72;;;15.10;79.40;;;;;;4973281;28;20497;-81
2021/10/30 04:21:48;;;;;;;4.32;4.03;;;15.10;79.40;;;;;;4973202;28;20038;-81
2021/10/30 04:24:14;;;;;;;3.72;3.53;;;15.00;79.40;;;;;;4971576;28;20400;-82
2021/10/30 04:26:40;;;;;;;4.75;4.45;;;15.10;79.50;;;;;;4972480;28;20027;-81
2021/10/30 04:29:06;;;;;;;4.15;3.95;;;15.00;79.40;;;;;;4972958;28;20035;-81
2021/10/30 04:31:33;;;;;;;4.13;3.92;;;15.00;79.40;;;;;;4969888;28;20043;-81
2021/10/30 04:34:02;;;;;;;4.30;4.10;;;15.00;79.50;;;;;;4964383;28;20476;-81
2021/10/30 04:36:30;;;;;;;3.88;3.67;;;15.00;79.50;;;;;;4971944;28;20050;-82
2021/10/30 04:38:57;;;;;;;4.05;3.85;;;15.00;79.50;;;;;;4970971;28;20070;-81
2021/10/30 04:41:23;;;;;;;4.18;3.97;;;15.00;79.60;;;;;;4972115;28;20035;-81
2021/10/30 04:43:49;;;;;;;3.83;3.63;;;15.00;79.60;;;;;;4971763;28;20038;-81
2021/10/30 04:46:17;;;;;;;4.57;4.28;;;15.00;79.60;;;;;;4969728;28;20038;-81
2021/10/30 04:48:43;;;;;;;4.05;3.85;;;14.90;79.60;;;;;;4962859;28;20030;-81
2021/10/30 04:51:09;;;;;;;3.88;3.67;;;14.90;79.70;;;;;;4970017;28;20023;-80
2021/10/30 04:53:37;;;;;;;3.95;3.75;;;14.90;79.70;;;;;;4972432;28;20042;-82
2021/10/30 04:56:03;;;;;;;3.95;3.75;;;15.00;79.80;;;;;;4970909;28;20034;-81
2021/10/30 04:58:29;;;;;;;4.13;3.92;;;14.90;79.70;;;;;;4972730;28;20033;-80
2021/10/30 05:00:56;;;;;;;4.35;4.00;;;14.90;79.80;;;;;;4971092;28;20498;-80
2021/10/30 05:03:22;;;;;;;3.85;3.65;;;14.90;79.70;;;;;;4969935;28;20043;-80
2021/10/30 05:05:49;;;;;;;4.07;3.88;;;14.90;79.80;;;;;;4971185;28;20506;-80
2021/10/30 05:08:15;;;;;;;4.90;4.55;;;14.90;79.80;;;;;;4972701;28;20031;-80
2021/10/30 05:10:41;;;;;;;6.57;4.10;;;14.80;79.70;;;;;;4972150;28;20041;-80
2021/10/30 05:13:07;;;;;;;4.07;3.88;;;14.80;79.80;;;;;;4971292;28;20038;-81
2021/10/30 05:15:33;;;;;;;4.13;3.88;;;14.80;79.70;;;;;;4972681;28;20039;-80
2021/10/30 05:17:59;;;;;;;4.20;4.00;;;14.80;79.70;;;;;;4971417;28;20492;-80
2021/10/30 05:20:29;;;;;;;4.28;4.07;;;14.80;79.80;;;;;;4973732;28;20412;-80
2021/10/30 05:22:55;;;;;;;3.97;3.78;;;14.80;79.70;;;;;;4969505;28;20039;-80
2021/10/30 05:25:22;;;;;;;4.00;3.80;;;14.80;79.80;;;;;;4969952;28;20471;-80
2021/10/30 05:27:48;;;;;;;3.95;3.75;;;14.70;79.70;;;;;;4971635;28;20069;-80
2021/10/30 05:30:14;;;;;;;4.35;3.95;;;14.80;79.80;;;;;;4972570;28;20026;-80
2021/10/30 05:32:40;;;;;;;4.68;4.30;;;14.80;79.80;;;;;;4972242;28;20042;-80
2021/10/30 05:35:07;;;;;;;4.40;4.13;;;14.80;79.90;;;;;;4972853;28;20043;-80
2021/10/30 05:37:33;;;;;;;4.35;4.13;;;14.80;79.90;;;;;;4970607;28;20407;-80
2021/10/30 05:39:59;;;;;;;4.38;4.18;;;14.70;79.80;;;;;;4969582;28;20054;-80
2021/10/30 05:42:26;;;;;;;4.28;4.07;;;14.80;79.90;;;;;;4969665;28;20062;-80
2021/10/30 05:44:52;;;;;;;4.03;3.72;;;14.80;79.80;;;;;;4970482;28;20042;-80
2021/10/30 05:47:18;;;;;;;3.83;3.63;;;14.80;79.80;;;;;;4985530;28;20058;-80
2021/10/30 05:49:45;;;;;;;4.88;4.47;;;14.80;79.80;;;;;;4968513;28;20034;-80
2021/10/30 05:52:11;;;;;;;3.92;3.72;;;14.80;79.80;;;;;;4968937;28;20027;-80
2021/10/30 05:54:38;;;;;;;3.90;3.70;;;14.80;80.50;;;;;;4971474;28;20031;-80
2021/10/30 05:57:08;;;;;;;3.97;3.75;;;14.80;79.70;;;;;;4972870;28;20059;-80
2021/10/30 05:59:34;;;;;;;4.00;3.80;;;14.80;79.70;;;;;;4972649;28;20027;-80
2021/10/30 06:02:00;;;;;;;4.15;3.85;;;14.90;79.80;;;;;;4968317;28;20035;-80
2021/10/30 06:04:26;;;;;;;4.28;4.07;;;14.90;79.80;;;;;;4971681;28;20042;-80
2021/10/30 06:06:52;;;;;;;4.10;3.80;;;14.90;79.70;;;;;;4967847;28;20042;-80
2021/10/30 06:09:19;;;;;;;4.05;3.85;;;14.90;79.70;;;;;;4970396;28;20508;-80
2021/10/30 06:11:45;;;;;;;4.55;4.35;;;14.90;79.70;;;;;;4971733;28;20399;-80
2021/10/30 06:14:11;;;;;;;3.92;3.72;;;14.90;79.70;;;;;;4983210;28;20031;-86
2021/10/30 06:16:37;;;;;;;4.70;4.40;;;14.90;79.70;;;;;;4970600;28;20119;-81
2021/10/30 06:19:04;;;;;;;4.05;3.85;;;15.00;79.80;;;;;;4969158;28;20031;-80
2021/10/30 06:21:30;;;;;;;5.00;4.65;;;15.00;79.60;;;;;;4970883;28;20035;-81
2021/10/30 06:23:59;;;;;;;3.97;3.78;;;15.00;79.60;;;;;;4969424;28;20396;-80
2021/10/30 06:26:26;;;;;;;4.40;4.10;;;15.00;79.60;;;;;;4968917;28;20526;-81
2021/10/30 06:28:53;;;;;;;5.47;5.00;;;15.00;79.60;;;;;;4970848;28;20035;-80
2021/10/30 06:31:21;;;;;;;4.55;4.15;;;15.00;79.60;;;;;;4968575;28;20050;-80
2021/10/30 06:33:47;;;;;;;3.63;3.42;;;15.00;79.70;;;;;;4970383;28;20030;-80
2021/10/30 06:36:13;;;;;;;3.92;3.72;;;15.00;79.70;;;;;;4968090;28;20067;-79
2021/10/30 06:38:39;;;;;;;4.82;4.53;;;15.00;79.70;;;;;;4971818;28;20031;-83
2021/10/30 06:41:06;;;;;;;4.85;4.55;;;15.00;79.80;;;;;;4971320;28;20035;-84
2021/10/30 06:43:33;;;;;;;4.10;3.90;;;15.00;79.80;;;;;;4976808;28;20549;-85
2021/10/30 06:45:59;;;;;;;4.15;3.95;;;15.00;79.70;;;;;;4975083;28;20039;-84
2021/10/30 06:48:25;;;;;;;8.02;4.30;;;15.00;79.70;;;;;;4966556;28;20027;-85
2021/10/30 06:50:53;;;;;;;4.03;3.83;;;15.00;79.70;;;;;;4952350;28;20049;-86
2021/10/30 06:53:20;;;;;;;4.22;4.03;;;15.00;79.70;;;;;;4971335;28;20468;-87
2021/10/30 06:55:47;;;;;;;4.65;4.35;;;15.00;79.70;;;;;;4972868;28;20373;-87
2021/10/30 06:58:13;;;;;;;4.32;4.13;;;15.00;79.70;;;;;;4969757;28;20399;-86
2021/10/30 07:00:40;;;;;;;4.40;4.18;;;15.10;79.70;;;;;;4970759;28;20038;-83
2021/10/30 07:03:07;;;;;;;3.92;3.72;;;15.10;79.70;;;;;;4971883;28;20043;-83
2021/10/30 07:05:33;;;;;;;4.03;3.83;;;15.10;79.70;;;;;;4973350;28;20043;-84
2021/10/30 07:07:59;;;;;;;4.20;4.00;;;15.10;79.70;;;;;;4976115;28;20039;-84
2021/10/30 07:10:26;;;;;;;3.70;3.50;;;15.10;79.70;;;;;;4972033;28;20050;-83
2021/10/30 07:12:52;;;;;;;4.30;4.10;;;15.10;79.70;;;;;;4971068;28;20049;-83
2021/10/30 07:15:18;;;;;;;4.05;3.85;;;15.10;79.70;;;;;;4971821;28;20058;-84
2021/10/30 07:17:44;;;;;;;4.50;4.20;;;15.10;79.70;;;;;;4974392;28;20479;-83
2021/10/30 07:20:11;;;;;;;4.47;4.18;;;15.20;79.70;;;;;;4972831;28;20038;-83
2021/10/30 07:22:44;;;;;;;4.47;4.20;;;15.20;79.70;;;;;;4970027;28;20054;-84
2021/10/30 07:25:10;;;;;;;4.32;4.00;;;15.20;79.70;;;;;;4972783;28;20061;-83
2021/10/30 07:27:37;;;;;;;3.95;3.75;;;15.20;79.70;;;;;;4968166;28;20031;-85
2021/10/30 07:30:05;;;;;;;4.55;4.25;;;15.20;79.70;;;;;;4972622;28;20038;-80
2021/10/30 07:32:31;;;;;;;4.50;4.22;;;15.20;79.70;;;;;;4973724;28;20490;-84
2021/10/30 07:34:57;;;;;;;3.85;3.65;;;15.30;79.70;;;;;;4971807;28;20043;-85
2021/10/30 07:37:23;;;;;;;3.88;3.63;;;15.30;79.60;;;;;;4972987;28;20514;-85
2021/10/30 07:39:50;;;;;;;4.40;4.07;;;15.30;79.60;;;;;;4971542;28;20037;-89
2021/10/30 07:42:16;;;;;;;4.10;3.90;;;15.40;79.60;;;;;;4972540;28;20027;-88
2021/10/30 07:44:42;;;;;;;3.97;3.78;;;15.40;79.50;;;;;;4971697;28;20042;-88
2021/10/30 07:47:08;;;;;;;3.88;3.67;;;15.50;79.50;;;;;;4972466;28;20042;-87
2021/10/30 07:49:35;;;;;;;4.07;3.78;;;15.50;79.40;;;;;;4974724;28;20046;-87
2021/10/30 07:52:05;;;;;;;4.30;4.10;;;15.80;79.00;;;;;;4971416;28;20503;-86
2021/10/30 07:54:32;;;;;;;4.47;4.28;;;16.20;78.10;;;;;;4955272;28;20498;-86
2021/10/30 07:56:58;;;;;;;4.45;4.15;;;16.60;77.10;;;;;;4963213;28;20065;-87
2021/10/30 07:59:24;;;;;;;5.15;4.85;;;17.10;76.20;;;;;;4976060;28;20507;-86
2021/10/30 08:01:50;;;;;;;4.28;4.07;;;17.30;75.30;;;;;;4975369;28;20035;-88
2021/10/30 08:04:26;;;;;;;4.10;3.80;;;17.30;75.30;;;;;;4967858;28;20043;-87
2021/10/30 08:06:52;;;;;;;5.55;4.75;;;17.10;75.70;;;;;;4981593;28;20031;-81
2021/10/30 08:09:18;;;;;;;4.95;4.75;;;16.90;76.30;;;;;;4972887;28;20387;-82
2021/10/30 08:11:44;;;;;;;4.85;4.65;;;16.70;76.90;;;;;;4971887;28;20035;-81
2021/10/30 08:14:10;;;;;;;4.00;3.80;;;16.50;77.50;;;;;;4975840;28;20401;-86
2021/10/30 08:16:37;;;;;;;3.90;3.70;;;16.40;77.90;;;;;;4971157;28;20047;-83
2021/10/30 08:19:03;;;;;;;4.20;4.00;;;16.40;78.30;;;;;;4973727;28;20046;-86
2021/10/30 08:21:29;;;;;;;4.85;4.45;;;16.30;78.50;;;;;;4976326;28;20041;-81
2021/10/30 08:23:57;;;;;;;4.03;3.83;;;16.30;78.50;;;;;;4971929;28;20046;-82
2021/10/30 08:26:24;;;;;;;4.00;3.80;;;16.40;78.50;;;;;;4974840;28;20051;-80
2021/10/30 08:28:50;;;;;;;4.40;4.20;;;16.40;78.50;;;;;;4974135;28;20369;-78
2021/10/30 08:31:16;;;;;;;4.10;3.90;;;16.40;78.60;;;;;;4971793;28;20047;-88
2021/10/30 08:33:42;;;;;;;4.80;4.30;;;16.40;78.70;;;;;;4970731;28;20046;-87
2021/10/30 08:36:09;;;;;;;3.83;3.63;;;16.40;78.70;;;;;;4969487;28;20062;-86
2021/10/30 08:38:35;;;;;;;4.38;4.18;;;16.40;78.70;;;;;;4972670;28;20035;-86
2021/10/30 08:41:02;;;;;;;4.47;4.28;;;16.40;78.70;;;;;;4971966;28;20030;-86
2021/10/30 08:43:28;;;;;;;4.10;3.80;;;16.40;78.70;;;;;;4951707;29;20040;-86
2021/10/30 08:45:55;;;;;;;3.78;3.58;;;16.40;78.70;;;;;;4966750;28;20554;-85
2021/10/30 08:48:22;;;;;;;3.85;3.65;;;16.40;78.80;;;;;;4967412;28;20054;-86
2021/10/30 08:50:49;;;;;;;4.30;4.00;;;16.40;78.80;;;;;;4979579;28;20042;-87
2021/10/30 08:53:15;;;;;;;4.18;3.97;;;16.50;78.80;;;;;;4970426;28;20044;-88
2021/10/30 08:55:42;;;;;;;4.47;4.28;;;16.50;78.80;;;;;;4969986;28;20093;-90
2021/10/30 08:58:09;;;;;;;4.18;3.97;;;16.60;78.80;;;;;;4972109;28;20043;-89
2021/10/30 09:00:44;;;;;;;3.83;3.63;;;16.60;78.70;;;;;;4954134;28;20039;-90
2021/10/30 09:03:12;;;;;;;3.70;3.50;;;16.70;78.60;;;;;;4960394;28;20047;-91
2021/10/30 09:05:39;;;;;;;4.65;4.45;;;16.80;78.60;;;;;;4975165;28;20042;-93
2021/10/30 09:08:07;;;;;;;4.22;4.03;;;16.80;78.40;;;;;;4987316;28;20035;-91
2021/10/30 09:10:35;;;;;;;3.75;3.55;;;16.80;78.40;;;;;;4982961;28;20046;-91
2021/10/30 09:13:03;;;;;;;4.10;3.90;;;16.90;78.50;;;;;;4962913;28;20039;-90
2021/10/30 09:15:43;;;;;;;4.00;3.80;;;16.90;78.50;;;;;;4975767;28;20487;-91
2021/10/30 09:18:37;;;;;;;4.30;4.10;;;16.90;78.50;;;;;;4958881;28;20051;-92
2021/10/30 09:21:03;;;;;;;3.97;3.78;;;16.90;78.40;;;;;;4958180;28;20035;-92
2021/10/30 09:23:41;;;;;;;4.70;4.40;;;16.90;78.40;;;;;;4974436;28;20041;-91
2021/10/30 09:26:09;;;;;;;4.25;4.05;;;16.90;78.50;;;;;;4960276;28;20049;-90
2021/10/30 09:28:45;;;;;;;4.18;3.97;;;16.90;78.50;;;;;;4939207;28;20053;-90
2021/10/30 09:31:11;;;;;;;7.55;4.47;;;16.90;78.50;;;;;;4956444;28;20042;-90
2021/10/30 09:33:48;;;;;;;4.30;4.10;;;16.90;78.70;;;;;;4942689;28;20047;-92
2021/10/30 09:36:14;;;;;;;4.45;4.18;;;16.80;78.80;;;;;;4955150;28;20034;-92
2021/10/30 09:38:42;;;;;;;4.22;4.03;;;16.70;78.90;;;;;;4942045;28;20055;-90
2021/10/30 09:41:44;;;;;;;4.18;3.97;;;16.70;79.00;;;;;;4955311;28;20050;-90
2021/10/30 09:44:18;;;;;;;3.88;3.67;;;16.70;79.20;;;;;;4935016;29;20040;-92
2021/10/30 09:46:44;;;;;;;4.03;3.83;;;16.70;79.20;;;;;;4911495;29;20043;-92
2021/10/30 09:49:15;;;;;;;3.92;3.72;;;16.60;79.20;;;;;;4921497;29;20032;-90
2021/10/30 09:51:42;;;;;;;3.70;3.50;;;16.60;79.20;;;;;;4914366;29;20055;-90
2021/10/30 09:54:08;;;;;;;4.07;3.88;;;16.60;79.30;;;;;;4895276;29;20212;-89
2021/10/30 09:56:47;;;;;;;4.03;3.83;;;16.70;79.30;;;;;;4895904;29;20039;-85
2021/10/30 09:59:16;;;;;;;3.83;3.63;;;16.70;79.30;;;;;;4912218;29;20055;-86
2021/10/30 10:01:44;;;;;;;4.53;4.22;;;16.70;79.20;;;;;;4906770;29;20048;-86
2021/10/30 10:04:11;;;;;;;4.72;4.53;;;16.70;79.20;;;;;;4888386;29;20040;-87
2021/10/30 10:06:38;;;;;;;5.82;5.53;;;16.70;79.20;;;;;;4913934;29;20043;-88
2021/10/30 10:09:04;;;;;;;4.63;4.43;;;16.70;79.20;;;;;;4902969;29;20040;-87
2021/10/30 10:11:30;;;;;;;4.40;4.20;;;16.60;79.10;;;;;;4901230;29;20658;-88
2021/10/30 10:13:56;;;;;;;4.15;3.95;;;16.60;79.10;;;;;;4923491;29;20028;-89
2021/10/30 10:16:23;;;;;;;4.70;4.50;;;16.60;79.10;;;;;;4913688;29;20043;-85
2021/10/30 10:18:50;;;;;;;4.75;4.55;;;16.60;79.00;;;;;;4951296;28;20059;-85
2021/10/30 10:21:26;;;;;;;4.35;4.15;;;16.50;79.10;;;;;;4973593;28;20035;-87
2021/10/30 10:23:54;;;;;;;4.65;4.45;;;16.50;79.10;;;;;;4967117;28;20423;-87
2021/10/30 10:26:48;;;;;;;4.93;4.72;;;16.50;79.00;;;;;;4995655;28;20483;-83
2021/10/30 10:29:34;;;;;;;12.43;4.95;;;16.50;78.90;;;;;;4969835;28;20038;-87
2021/10/30 10:32:01;;;;;;;4.03;3.83;;;16.50;78.90;;;;;;4965404;28;20496;-85
2021/10/30 10:34:38;;;;;;;6.35;4.30;;;16.50;78.90;;;;;;4971819;28;20058;-84
2021/10/30 10:37:10;;;;;;;4.25;4.05;;;16.50;78.80;;;;;;4951319;29;20051;-87
2021/10/30 10:39:47;;;;;;;4.97;4.78;;;16.50;78.80;;;;;;4971807;28;20027;-83
2021/10/30 10:42:14;;;;;;;4.70;4.50;;;16.50;78.80;;;;;;4958793;28;20038;-92
2021/10/30 10:44:41;;;;;;;5.00;4.80;;;16.40;78.70;;;;;;4971133;28;20031;-89
2021/10/30 10:47:11;;;;;;;5.05;4.85;;;16.40;78.70;;;;;;4974176;28;20383;-88
2021/10/30 10:49:49;;;;;;;4.80;4.50;;;16.40;78.70;;;;;;4973047;28;20047;-92
2021/10/30 10:52:24;;;;;;;3.97;3.78;;;16.40;78.70;;;;;;4969553;28;20035;-89
2021/10/30 10:54:59;;;;;;;3.45;3.35;;;16.40;78.70;;;;;;4966541;28;20045;-93
2021/10/30 10:57:32;;;;;;;4.10;3.90;;;16.50;78.50;;;;;;4980926;28;20056;-94
2021/10/30 11:00:05;;;;;;;4.43;4.22;;;16.50;78.30;;;;;;4963058;28;21646;-89
2021/10/30 11:02:32;;;;;;;4.63;4.43;;;16.60;78.20;;;;;;4975278;28;20410;-93
2021/10/30 11:05:07;;;;;;;4.85;4.65;;;16.50;78.10;;;;;;4956284;28;20043;-88
2021/10/30 11:07:42;;;;;;;4.65;4.45;;;16.60;78.10;;;;;;4972633;28;20058;-93
2021/10/30 11:10:13;;;;;;;4.90;4.70;;;16.50;78.00;;;;;;4970108;28;20518;-89
2021/10/30 11:13:01;;;;;;;4.60;4.40;;;16.60;78.00;;;;;;4960478;28;20045;-93
2021/10/30 11:15:43;;;;;;;4.63;4.43;;;16.60;77.90;;;;;;4948335;29;20027;-94
2021/10/30 11:18:20;;;;;;;4.60;4.40;;;16.80;77.90;;;;;;4959794;28;20039;-90
2021/10/30 11:20:49;;;;;;;4.57;4.38;;;16.90;77.60;;;;;;4961076;28;20042;-91
2021/10/30 11:23:23;;;;;;;4.63;4.43;;;16.90;77.40;;;;;;4977450;28;20058;-85
2021/10/30 11:26:06;;;;;;;4.65;4.45;;;17.00;77.20;;;;;;4983750;28;20034;-92
2021/10/30 11:28:38;;;;;;;4.20;4.00;;;17.10;77.10;;;;;;4955975;28;20412;-92
2021/10/30 11:31:19;;;;;;;4.40;4.20;;;17.10;77.00;;;;;;4949762;29;20023;-91
2021/10/30 11:33:45;;;;;;;4.72;4.53;;;17.20;76.80;;;;;;4947039;28;20046;-94
2021/10/30 11:36:13;;;;;;;4.68;4.47;;;17.30;76.60;;;;;;4957609;28;20043;-82
2021/10/30 11:38:45;;;;;;;4.70;4.50;;;17.30;76.60;;;;;;4977040;28;20035;-82
2021/10/30 11:41:19;;;;;;;4.30;4.10;;;17.30;76.60;;;;;;4973442;28;20052;-81
2021/10/30 11:43:47;;;;;;;4.72;4.53;;;17.30;76.60;;;;;;4970947;28;20484;-83
2021/10/30 11:46:17;;;;;;;4.85;4.65;;;17.20;76.60;;;;;;4975749;28;20034;-78
2021/10/30 11:48:48;;;;;;;4.55;4.35;;;17.20;76.80;;;;;;4972964;28;20724;-79
2021/10/30 11:51:18;;;;;;;4.40;4.20;;;17.10;76.70;;;;;;4970212;28;20556;-78
2021/10/30 11:53:50;;;;;;;4.47;4.28;;;17.10;76.80;;;;;;4973770;28;20030;-79
2021/10/30 11:56:17;;;;;;;4.68;4.38;;;17.10;76.90;;;;;;4978685;28;20034;-79
2021/10/30 11:58:48;;;;;;;4.53;4.32;;;17.20;76.80;;;;;;4974542;28;20404;-81
2021/10/30 12:01:23;;;;;;;4.75;4.55;;;17.20;76.60;;;;;;4971968;28;20392;-81
2021/10/30 12:04:01;;;;;;;4.18;3.97;;;17.30;76.60;;;;;;4986401;28;20058;-81
2021/10/30 12:06:38;;;;;;;4.65;4.45;;;17.40;76.40;;;;;;4973292;28;20027;-81
2021/10/30 12:09:14;;;;;;;4.55;4.35;;;17.60;76.10;;;;;;4957495;28;20035;-81
2021/10/30 12:11:40;;;;;;;4.47;4.28;;;17.70;75.90;;;;;;4989188;28;20041;-81
2021/10/30 12:14:06;;;;;;;4.50;4.30;;;17.80;75.80;;;;;;4971735;28;20388;-81
2021/10/30 12:16:32;;;;;;;5.10;4.90;;;17.90;75.60;;;;;;4969212;28;20042;-81
2021/10/30 12:19:02;;;;;;;4.63;4.43;;;17.90;75.40;;;;;;4971394;28;20435;-81
2021/10/30 12:21:33;;;;;;;5.55;5.25;;;17.90;75.40;;;;;;4970600;28;20026;-81
2021/10/30 12:24:04;;;;;;;4.85;4.65;;;17.90;75.30;;;;;;4968994;28;20035;-82
2021/10/30 12:26:31;;;;;;;4.78;4.57;;;18.00;75.30;;;;;;4977119;28;20030;-82
2021/10/30 12:29:16;;;;;;;4.72;4.53;;;18.00;75.20;;;;;;4972926;28;20031;-82
2021/10/30 12:32:07;;;;;;;5.13;4.93;;;18.10;75.10;;;;;;4949518;28;20392;-83
2021/10/30 12:34:34;;;;;;;4.95;4.75;;;18.10;74.90;;;;;;4970666;28;20065;-82
2021/10/30 12:37:02;;;;;;;4.93;4.72;;;18.10;74.90;;;;;;4970983;28;20464;-82
2021/10/30 12:39:28;;;;;;;4.88;4.68;;;18.10;74.80;;;;;;4972330;28;20019;-83
2021/10/30 12:41:56;;;;;;;5.43;5.20;;;18.10;74.80;;;;;;4973386;28;20035;-83
2021/10/30 12:44:29;;;;;;;5.25;5.05;;;18.10;74.80;;;;;;4972532;28;20027;-84
2021/10/30 12:47:00;;;;;;;4.85;4.65;;;18.10;74.70;;;;;;4972020;28;20043;-83
2021/10/30 12:49:28;;;;;;;5.25;5.05;;;18.10;75.40;;;;;;4968950;28;20396;-82
2021/10/30 12:51:58;;;;;;;5.80;5.50;;;18.10;74.60;;;;;;4972982;28;20035;-83